Time;durP1;ratioP1;P1;durP2;ratioP2;P2;SDS_P1;SDS_P2;PMS_P1;PMS_P2;Temp;Humidity;BMP_temperature;BMP_pressure;BME280_temperature;BME280_humidity;BME280_pressure;Samples;Min_cycle;Max_cycle;Signal;HPM_P1;HPM_P2
2022/01/26 00:06:08;;;;;;;72.43;23.92;;;;;;;2.34;100.00;102465.59;7395557;19;20018;-68
2022/01/26 00:08:35;;;;;;;;;;;;;;;2.32;100.00;102457.75;7398338;19;20022;-68
2022/01/26 00:11:04;;;;;;;77.97;26.98;;;;;;;2.32;100.00;102455.16;7397481;19;19919;-69
2022/01/26 00:13:32;;;;;;;77.28;25.70;;;;;;;2.33;100.00;102459.53;7399831;19;20031;-68
2022/01/26 00:16:03;;;;;;;69.68;23.30;;;;;;;2.32;100.00;102460.34;7399707;19;20018;-68
2022/01/26 00:18:35;;;;;;;76.88;23.80;;;;;;;2.32;100.00;102465.53;7397431;19;20019;-68
2022/01/26 00:21:13;;;;;;;75.10;24.67;;;;;;;2.33;100.00;102466.44;7396868;19;20395;-69
2022/01/26 00:24:08;;;;;;;86.53;24.75;;;;;;;2.33;100.00;102458.66;7400409;19;20404;-68
2022/01/26 00:26:58;;;;;;;;;;;;;;;2.33;100.00;102464.72;7398219;19;20086;-68
2022/01/26 00:29:24;;;;;;;75.30;24.77;;;;;;;2.31;100.00;102466.34;7397305;19;19938;-68
2022/01/26 00:33:06;;;;;;;79.97;24.35;;;;;;;2.29;100.00;102460.25;7398834;19;20504;-68
2022/01/26 00:40:23;;;;;;;87.85;24.83;;;;;;;2.25;100.00;102450.56;7399637;19;20013;-67
2022/01/26 00:42:55;;;;;;;77.25;24.92;;;;;;;2.27;100.00;102455.00;7398701;19;20488;-68
2022/01/26 00:45:27;;;;;;;88.63;24.77;;;;;;;2.28;100.00;102448.09;7399219;19;20018;-68
2022/01/26 00:47:57;;;;;;;84.57;24.25;;;;;;;2.27;100.00;102443.75;7397239;19;20018;-68
2022/01/26 00:50:25;;;;;;;89.65;27.40;;;;;;;2.29;100.00;102444.69;7396360;19;20082;-68
2022/01/26 00:52:56;;;;;;;82.93;24.35;;;;;;;2.30;100.00;102445.56;7396033;19;20479;-68
2022/01/26 00:55:24;;;;;;;75.55;23.38;;;;;;;2.31;100.00;102437.84;7396720;19;20018;-68
2022/01/26 00:57:52;;;;;;;83.20;23.45;;;;;;;2.31;100.00;102435.25;7395806;19;20476;-69
2022/01/26 01:00:24;;;;;;;81.53;24.63;;;;;;;2.33;100.00;102428.44;7398329;19;20022;-68
2022/01/26 01:02:53;;;;;;;84.82;24.85;;;;;;;2.33;100.00;102433.63;7399104;19;20029;-68
2022/01/26 01:05:26;;;;;;;83.05;22.77;;;;;;;2.34;100.00;102432.81;7398030;19;20022;-69
2022/01/26 01:08:03;;;;;;;87.30;24.63;;;;;;;2.32;100.00;102426.66;7396706;19;20078;-68
2022/01/26 01:10:31;;;;;;;84.80;24.40;;;;;;;2.32;100.00;102426.66;7396343;19;20014;-68
2022/01/26 01:13:00;;;;;;;83.78;23.83;;;;;;;2.33;100.00;102427.56;7397743;19;20011;-69
2022/01/26 01:15:29;;;;;;;81.82;24.23;;;;;;;2.34;100.00;102430.22;7395822;19;20018;-68
2022/01/26 01:18:07;;;;;;;75.68;23.67;;;;;;;2.34;100.00;102434.50;7395836;19;20362;-68
2022/01/26 01:21:03;;;;;;;78.88;23.63;;;;;;;2.33;100.00;102432.75;7397982;19;20017;-68
2022/01/26 01:24:03;;;;;;;83.90;23.25;;;;;;;2.34;100.00;102435.41;7397317;19;20015;-68
2022/01/26 01:29:18;;;;;;;70.38;23.73;;;;;;;2.35;100.00;102441.44;7396588;19;20015;-68
2022/01/26 01:31:50;;;;;;;66.07;21.63;;;;;;;2.34;100.00;102432.81;7395822;19;20018;-69
2022/01/26 01:34:25;;;;;;;68.47;21.05;;;;;;;2.35;100.00;102434.59;7397543;19;20011;-68
2022/01/26 01:36:54;;;;;;;71.03;21.75;;;;;;;2.34;100.00;102438.00;7396883;19;20015;-69
2022/01/26 01:39:25;;;;;;;76.13;24.33;;;;;;;2.35;100.00;102444.03;7396922;19;20011;-67
2022/01/26 01:41:54;;;;;;;74.20;23.33;;;;;;;2.36;100.00;102449.28;7394970;19;20014;-68
2022/01/26 01:44:22;;;;;;;69.43;22.35;;;;;;;2.36;100.00;102438.03;7396802;19;20019;-68
2022/01/26 01:46:51;;;;;;;62.95;21.48;;;;;;;2.36;100.00;102446.69;7395525;19;20019;-69
2022/01/26 01:49:19;;;;;;;63.10;22.00;;;;;;;2.36;100.00;102445.81;7394788;19;20010;-68
2022/01/26 01:51:51;;;;;;;60.33;21.48;;;;;;;2.36;100.00;102438.03;7396517;19;20031;-68
2022/01/26 01:54:20;;;;;;;64.35;21.63;;;;;;;2.37;100.00;102440.69;7396867;19;20070;-68
2022/01/26 01:56:59;;;;;;;62.63;21.92;;;;;;;2.37;100.00;102432.91;7394597;19;20022;-68
2022/01/26 01:59:30;;;;;;;64.53;21.90;;;;;;;2.38;100.00;102434.69;7394641;19;20040;-68
2022/01/26 02:01:59;;;;;;;61.35;21.13;;;;;;;2.40;100.00;102440.81;7396724;19;20024;-68
2022/01/26 02:04:28;;;;;;;59.85;24.27;;;;;;;2.40;100.00;102432.16;7394454;19;20027;-68
2022/01/26 02:06:57;;;;;;;55.50;21.00;;;;;;;2.39;100.00;102427.78;7392730;19;20074;-68
2022/01/26 02:09:25;;;;;;;60.60;22.20;;;;;;;2.37;100.00;102437.22;7395131;19;20022;-68
2022/01/26 02:11:55;;;;;;;60.42;23.08;;;;;;;2.38;100.00;102421.72;7394334;19;20023;-69
2022/01/26 02:14:30;;;;;;;58.33;21.27;;;;;;;2.38;100.00;102426.91;7396173;19;20032;-70
2022/01/26 02:17:10;;;;;;;49.53;21.33;;;;;;;2.38;100.00;102432.09;7396986;19;20014;-69
2022/01/26 02:49:54;;;;;;;45.80;18.95;;;;;;;2.30;100.00;102417.97;7394325;19;20353;-68
2022/01/26 03:00:48;;;;;;;38.65;15.57;;;;;;;2.23;99.77;102405.59;7391843;19;20011;-69
2022/01/26 03:03:21;;;;;;;35.17;15.88;;;;;;;2.22;99.75;102398.66;7393067;19;20041;-67
2022/01/26 03:05:54;;;;;;;38.95;17.30;;;;;;;2.22;100.00;102401.25;7392763;19;20019;-68
2022/01/26 03:08:30;;;;;;;32.22;15.48;;;;;;;2.23;100.00;102400.41;7392793;19;20018;-68
2022/01/26 03:11:07;;;;;;;33.10;14.57;;;;;;;2.21;100.00;102397.78;7392696;19;20019;-68
2022/01/26 03:13:38;;;;;;;31.75;14.73;;;;;;;2.22;100.00;102399.53;7394021;19;20446;-68
2022/01/26 03:16:11;;;;;;;32.40;15.30;;;;;;;2.22;100.00;102393.47;7395391;19;20040;-69
2022/01/26 03:21:33;;;;;;;35.25;15.75;;;;;;;2.21;99.78;102390.00;7398931;19;20018;-68
2022/01/26 03:29:53;;;;;;;30.80;14.38;;;;;;;2.21;99.76;102391.69;7401408;19;20352;-68
2022/01/26 03:35:02;;;;;;;31.88;14.52;;;;;;;2.19;99.58;102391.66;7397121;19;20082;-68
2022/01/26 03:37:37;;;;;;;31.92;14.77;;;;;;;2.19;99.48;102394.22;7397667;19;20527;-69
2022/01/26 03:40:13;;;;;;;30.33;14.57;;;;;;;2.18;99.77;102389.88;7397912;19;20497;-67
2022/01/26 03:42:44;;;;;;;31.80;14.60;;;;;;;2.18;99.51;102397.63;7398345;19;20382;-67
2022/01/26 03:45:13;;;;;;;33.10;14.35;;;;;;;2.18;99.56;102391.59;7398628;19;20032;-67
2022/01/26 03:47:41;;;;;;;29.65;13.30;;;;;;;2.19;100.00;102393.38;7399120;19;20018;-67
2022/01/26 03:50:10;;;;;;;33.60;15.80;;;;;;;2.16;99.42;102390.63;7397931;19;20019;-67
2022/01/26 03:52:38;;;;;;;31.52;14.23;;;;;;;2.16;99.32;102395.81;7400508;19;20035;-67
2022/01/26 03:55:07;;;;;;;31.15;14.30;;;;;;;2.14;98.98;102397.44;7397954;19;20029;-68
2022/01/26 03:57:35;;;;;;;29.13;12.40;;;;;;;2.13;99.59;102387.94;7398958;19;20130;-67
2022/01/26 04:00:08;;;;;;;27.77;12.68;;;;;;;2.10;99.07;102391.28;7400254;19;20018;-68
2022/01/26 04:02:36;;;;;;;29.88;13.93;;;;;;;2.08;99.71;102388.63;7397923;19;20014;-67
2022/01/26 04:05:09;;;;;;;29.30;12.07;;;;;;;2.09;99.69;102394.69;7397220;19;20476;-68
2022/01/26 04:07:37;;;;;;;30.08;13.90;;;;;;;2.07;99.73;102389.47;7398803;19;20022;-67
2022/01/26 04:10:15;;;;;;;29.60;12.93;;;;;;;2.06;99.25;102387.69;7397350;19;20095;-68
2022/01/26 04:12:43;;;;;;;34.20;12.68;;;;;;;2.04;99.34;102394.50;7400101;19;20032;-68
2022/01/26 04:15:22;;;;;;;30.98;13.05;;;;;;;2.03;99.62;102384.09;7399461;19;20491;-68
2022/01/26 04:17:51;;;;;;;36.30;14.07;;;;;;;2.00;99.03;102392.63;7396983;19;20379;-67
2022/01/26 04:20:22;;;;;;;31.02;13.32;;;;;;;1.97;98.13;102383.84;7398835;19;20496;-67
2022/01/26 04:23:04;;;;;;;33.40;14.43;;;;;;;1.95;98.97;102379.47;7399625;19;20015;-67
2022/01/26 04:25:33;;;;;;;32.72;14.40;;;;;;;1.92;98.28;102378.47;7398474;19;20351;-67
2022/01/26 04:28:06;;;;;;;30.10;13.82;;;;;;;1.89;98.64;102374.06;7395776;19;20014;-67
2022/01/26 04:30:37;;;;;;;39.17;14.35;;;;;;;1.87;99.28;102375.72;7397728;19;20019;-67
2022/01/26 04:33:06;;;;;;;34.70;14.63;;;;;;;1.85;99.27;102369.59;7398562;19;20498;-67
2022/01/26 04:35:40;;;;;;;32.97;13.30;;;;;;;1.84;99.52;102375.59;7396442;19;20019;-68
2022/01/26 04:38:17;;;;;;;35.60;14.15;;;;;;;1.79;98.21;102370.25;7396342;19;20029;-68
2022/01/26 04:40:54;;;;;;;36.50;13.98;;;;;;;1.78;99.09;102373.66;7398956;19;20014;-67
2022/01/26 04:43:26;;;;;;;29.05;12.90;;;;;;;1.74;97.69;102371.72;7398779;19;20032;-68
2022/01/26 04:45:57;;;;;;;30.00;13.95;;;;;;;1.72;99.27;102363.03;7396114;19;20361;-68
2022/01/26 04:48:26;;;;;;;40.88;15.43;;;;;;;1.71;99.58;102363.84;7396160;19;20018;-68
2022/01/26 04:50:55;;;;;;;36.78;13.98;;;;;;;1.68;98.35;102368.91;7395729;19;20395;-67
2022/01/26 04:53:23;;;;;;;31.35;14.23;;;;;;;1.67;98.62;102361.97;7397782;19;20508;-69
2022/01/26 04:55:52;;;;;;;35.72;14.93;;;;;;;1.65;98.81;102358.44;7395485;19;20321;-69
2022/01/26 04:58:20;;;;;;;34.55;13.95;;;;;;;1.64;98.83;102364.41;7396149;19;20024;-69
2022/01/26 05:00:48;;;;;;;35.13;14.65;;;;;;;1.65;99.33;102354.97;7397548;19;20479;-69
2022/01/26 05:03:19;;;;;;;27.85;13.55;;;;;;;1.60;97.89;102352.19;7396232;19;20035;-68
2022/01/26 05:05:47;;;;;;;30.20;12.20;;;;;;;1.59;98.68;102353.91;7397708;19;20022;-67
2022/01/26 05:08:15;;;;;;;33.33;14.10;;;;;;;1.58;98.71;102354.72;7395531;19;20047;-67
2022/01/26 05:10:44;;;;;;;30.33;13.77;;;;;;;1.60;99.79;102362.53;7395851;19;20483;-67
2022/01/26 05:13:15;;;;;;;36.42;14.15;;;;;;;1.59;99.84;102350.41;7397698;19;20025;-67
2022/01/26 05:15:44;;;;;;;36.05;12.88;;;;;;;1.60;100.00;102344.41;7397908;19;20018;-67
2022/01/26 05:18:13;;;;;;;31.05;13.88;;;;;;;1.58;100.00;102340.88;7395599;19;20405;-68
2022/01/26 05:20:44;;;;;;;36.50;14.43;;;;;;;1.61;100.00;102341.00;7397187;19;20033;-67
2022/01/26 05:23:12;;;;;;;44.90;16.17;;;;;;;1.61;100.00;102341.00;7397592;19;20074;-68
2022/01/26 05:25:41;;;;;;;40.33;14.98;;;;;;;1.62;100.00;102345.38;7394948;19;20015;-68
2022/01/26 05:28:09;;;;;;;39.60;15.00;;;;;;;1.61;100.00;102349.66;7395078;19;20503;-68
2022/01/26 05:30:37;;;;;;;37.75;15.32;;;;;;;1.59;99.92;102347.81;7395641;19;20028;-68
2022/01/26 05:33:05;;;;;;;41.78;16.95;;;;;;;1.58;100.00;102346.94;7396904;19;20010;-67
2022/01/26 05:35:34;;;;;;;41.10;14.68;;;;;;;1.53;100.00;102347.56;7396606;19;20014;-68
2022/01/26 05:38:05;;;;;;;35.05;15.63;;;;;;;1.56;100.00;102346.00;7395563;19;20023;-68
2022/01/26 05:40:33;;;;;;;38.63;14.90;;;;;;;1.55;100.00;102343.34;7392743;19;20042;-67
2022/01/26 05:43:01;;;;;;;35.70;14.77;;;;;;;1.53;99.76;102353.63;7396435;19;20135;-68
2022/01/26 05:45:33;;;;;;;38.63;14.13;;;;;;;1.49;99.57;102354.31;7395932;19;20124;-68
2022/01/26 05:48:04;;;;;;;38.20;14.30;;;;;;;1.49;99.97;102356.03;7395062;19;20019;-68
2022/01/26 05:50:33;;;;;;;35.70;15.05;;;;;;;1.48;99.95;102349.97;7395893;19;20011;-67
2022/01/26 05:53:05;;;;;;;38.88;15.65;;;;;;;1.49;100.00;102354.31;7394041;19;20044;-68
2022/01/26 05:55:33;;;;;;;44.15;14.75;;;;;;;1.49;100.00;102364.66;7394851;19;20031;-68
2022/01/26 05:58:01;;;;;;;39.03;14.77;;;;;;;1.50;100.00;102353.50;7393870;19;20496;-68
2022/01/26 06:00:30;;;;;;;41.72;15.70;;;;;;;1.50;100.00;102353.50;7393087;19;20018;-67
2022/01/26 06:02:58;;;;;;;40.95;15.07;;;;;;;1.50;100.00;102350.03;7394965;19;20014;-67
2022/01/26 06:05:26;;;;;;;34.42;15.32;;;;;;;1.50;100.00;102342.28;7394690;19;20022;-68
2022/01/26 06:07:55;;;;;;;41.22;15.88;;;;;;;1.49;100.00;102331.03;7394056;19;20035;-68
2022/01/26 06:10:25;;;;;;;37.38;15.55;;;;;;;1.47;99.97;102332.69;7392609;19;20544;-68
2022/01/26 06:12:53;;;;;;;39.17;15.55;;;;;;;1.45;99.87;102332.63;7396839;19;20365;-68
2022/01/26 06:15:22;;;;;;;40.70;15.45;;;;;;;1.46;100.00;102339.53;7396363;19;20010;-68
2022/01/26 06:17:50;;;;;;;46.03;16.02;;;;;;;1.45;100.00;102332.63;7393966;19;20086;-69
2022/01/26 06:20:18;;;;;;;41.95;17.13;;;;;;;1.44;100.00;102328.28;7392892;19;20027;-66
2022/01/26 06:22:46;;;;;;;37.72;15.43;;;;;;;1.44;99.81;102341.22;7393976;19;20018;-68
2022/01/26 06:25:15;;;;;;;39.75;16.50;;;;;;;1.42;100.00;102339.38;7394684;19;20022;-69
2022/01/26 06:27:48;;;;;;;42.13;16.90;;;;;;;1.44;100.00;102333.44;7392944;19;20483;-68
2022/01/26 06:30:16;;;;;;;42.97;16.30;;;;;;;1.44;100.00;102332.53;7393927;19;20027;-69
2022/01/26 06:32:44;;;;;;;42.53;16.45;;;;;;;1.43;100.00;102325.63;7392585;19;20014;-69
2022/01/26 06:35:12;;;;;;;41.13;16.88;;;;;;;1.44;100.00;102332.53;7392296;19;20040;-67
2022/01/26 06:37:41;;;;;;;39.08;17.10;;;;;;;1.43;100.00;102320.47;7393172;19;20015;-68
2022/01/26 06:40:10;;;;;;;40.83;16.23;;;;;;;1.45;100.00;102321.38;7394437;19;20024;-68
2022/01/26 06:42:50;;;;;;;38.15;16.00;;;;;;;1.42;99.88;102323.88;7394367;19;20036;-68
2022/01/26 06:45:23;;;;;;;39.83;17.02;;;;;;;1.43;100.00;102329.09;7395263;19;20018;-67
2022/01/26 06:48:11;;;;;;;42.80;18.20;;;;;;;1.43;99.96;102325.63;7393596;19;20022;-69
2022/01/26 06:50:39;;;;;;;38.15;16.67;;;;;;;1.43;99.78;102328.22;7394166;19;20021;-68
2022/01/26 06:53:08;;;;;;;44.30;16.58;;;;;;;1.43;99.06;102333.38;7400895;19;20043;-68
2022/01/26 06:55:38;;;;;;;42.05;17.55;;;;;;;1.41;99.24;102333.31;7401980;19;20373;-68
2022/01/26 06:58:06;;;;;;;36.50;16.05;;;;;;;1.42;99.89;102331.63;7399641;19;20015;-68
2022/01/26 07:00:37;;;;;;;33.65;15.27;;;;;;;1.42;99.70;102311.81;7401678;19;20459;-68
2022/01/26 07:03:05;;;;;;;35.47;16.50;;;;;;;1.42;99.85;102311.81;7401804;19;20027;-69
2022/01/26 07:05:34;;;;;;;36.25;15.07;;;;;;;1.43;99.54;102310.97;7398673;19;20014;-69
2022/01/26 07:08:02;;;;;;;33.28;15.40;;;;;;;1.43;99.59;102316.16;7398829;19;20011;-67
2022/01/26 07:10:37;;;;;;;36.95;16.92;;;;;;;1.43;99.22;102315.28;7399721;19;20018;-68
2022/01/26 07:13:05;;;;;;;32.30;15.50;;;;;;;1.44;99.21;102323.09;7399738;19;20015;-68
2022/01/26 07:23:42;;;;;;;30.73;15.73;;;;;;;1.45;98.45;102327.47;7400723;19;19944;-68
2022/01/26 07:26:11;;;;;;;34.28;15.55;;;;;;;1.45;99.44;102324.88;7399462;19;20353;-69
2022/01/26 07:28:39;;;;;;;31.17;14.55;;;;;;;1.47;99.17;102324.94;7399103;19;20010;-71
2022/01/26 07:31:12;;;;;;;30.40;14.60;;;;;;;1.45;98.62;102332.63;7398189;19;20015;-69
2022/01/26 07:33:42;;;;;;;32.58;14.85;;;;;;;1.47;98.71;102332.69;7397917;19;20461;-69
2022/01/26 07:36:10;;;;;;;28.33;14.38;;;;;;;1.45;97.71;102322.28;7397679;19;20374;-67
2022/01/26 07:38:39;;;;;;;31.73;15.48;;;;;;;1.46;98.20;102324.03;7397201;19;20018;-69
2022/01/26 07:41:07;;;;;;;32.15;14.43;;;;;;;1.50;99.15;102319.00;7398418;19;20022;-68
2022/01/26 07:43:35;;;;;;;29.63;15.45;;;;;;;1.49;98.20;102306.88;7397656;19;20035;-67
2022/01/26 07:46:06;;;;;;;28.52;13.10;;;;;;;1.49;98.75;102312.06;7397526;19;20014;-68
2022/01/26 07:48:36;;;;;;;27.20;13.50;;;;;;;1.50;99.06;102306.06;7397803;19;20018;-68
2022/01/26 07:51:05;;;;;;;33.47;15.18;;;;;;;1.50;98.29;102309.53;7397328;19;20505;-67
2022/01/26 07:53:33;;;;;;;34.78;15.60;;;;;;;1.50;98.71;102309.53;7401227;19;20018;-69
2022/01/26 07:56:01;;;;;;;32.65;15.52;;;;;;;1.51;97.99;102323.34;7400231;19;20022;-69
2022/01/26 07:58:36;;;;;;;30.70;14.77;;;;;;;1.50;97.75;102325.03;7397358;19;20501;-67
2022/01/26 08:01:05;;;;;;;31.27;14.77;;;;;;;1.52;98.90;102325.13;7397043;19;20019;-68
2022/01/26 08:03:33;;;;;;;31.17;14.77;;;;;;;1.55;98.77;102314.88;7397541;19;20011;-66
2022/01/26 08:06:06;;;;;;;33.47;15.05;;;;;;;1.57;98.89;102313.25;7397290;19;20030;-68
2022/01/26 08:08:34;;;;;;;32.00;14.20;;;;;;;1.59;98.90;102314.19;7397274;19;20019;-68
2022/01/26 08:11:02;;;;;;;35.38;14.95;;;;;;;1.62;98.26;102332.44;7398154;19;20509;-68
2022/01/26 08:13:31;;;;;;;34.47;15.52;;;;;;;1.64;98.45;102325.59;7399157;19;20011;-68
2022/01/26 08:15:59;;;;;;;28.48;14.27;;;;;;;1.65;98.38;102327.38;7398260;19;20425;-68
2022/01/26 08:18:28;;;;;;;31.02;14.43;;;;;;;1.67;97.96;102330.91;7397149;19;20059;-69
2022/01/26 08:21:02;;;;;;;31.98;14.77;;;;;;;1.68;97.09;102330.09;7399400;19;20028;-68
2022/01/26 08:23:35;;;;;;;33.20;15.20;;;;;;;1.67;96.22;102325.75;7399473;19;20022;-68
2022/01/26 08:26:03;;;;;;;35.03;17.17;;;;;;;1.69;97.08;102328.38;7396524;19;20014;-68
2022/01/26 08:28:36;;;;;;;36.17;15.82;;;;;;;1.70;97.08;102336.22;7396695;19;20047;-68
2022/01/26 08:31:04;;;;;;;35.05;15.75;;;;;;;1.71;97.97;102332.81;7398842;19;20014;-68
2022/01/26 08:33:32;;;;;;;31.70;16.02;;;;;;;1.73;97.27;102327.69;7398563;19;20026;-68
2022/01/26 08:36:00;;;;;;;31.88;15.35;;;;;;;1.70;95.89;102320.69;7398176;19;20385;-68
2022/01/26 08:38:28;;;;;;;34.00;16.23;;;;;;;1.72;96.40;102331.09;7396444;19;20035;-69
2022/01/26 08:40:59;;;;;;;33.97;16.75;;;;;;;1.72;97.21;102328.50;7397264;19;20028;-67
2022/01/26 08:43:27;;;;;;;34.88;17.48;;;;;;;1.73;97.42;102331.16;7399146;19;20018;-67
2022/01/26 08:45:56;;;;;;;31.48;14.85;;;;;;;1.75;96.04;102352.78;7397997;19;20377;-65
2022/01/26 08:48:25;;;;;;;37.42;16.65;;;;;;;1.76;96.26;102344.22;7396478;19;20019;-66
2022/01/26 08:50:53;;;;;;;33.38;15.90;;;;;;;1.77;97.06;102338.22;7396108;19;20019;-65
2022/01/26 08:53:22;;;;;;;33.53;15.98;;;;;;;1.81;97.01;102320.22;7398196;19;20019;-67
2022/01/26 08:55:51;;;;;;;28.70;14.32;;;;;;;1.83;97.04;102305.66;7398393;19;20018;-66
2022/01/26 08:58:22;;;;;;;29.95;14.40;;;;;;;1.84;97.38;102291.88;7395599;19;20434;-66
2022/01/26 09:00:50;;;;;;;32.00;14.95;;;;;;;1.85;96.98;102307.47;7398284;19;20019;-66
2022/01/26 09:03:18;;;;;;;30.83;14.63;;;;;;;1.87;96.73;102325.63;7395958;19;20021;-66
2022/01/26 09:05:47;;;;;;;30.58;15.05;;;;;;;1.86;95.57;102311.84;7397745;19;20511;-66
2022/01/26 09:08:17;;;;;;;27.92;13.13;;;;;;;1.87;95.98;102310.09;7395778;19;20015;-68
2022/01/26 09:10:45;;;;;;;28.13;13.18;;;;;;;1.86;95.94;102309.25;7395719;19;20108;-66
2022/01/26 09:13:14;;;;;;;28.90;13.63;;;;;;;1.87;95.87;102317.88;7397532;19;20018;-65
2022/01/26 09:15:44;;;;;;;29.60;13.32;;;;;;;1.87;96.27;102315.28;7397622;19;20379;-66
2022/01/26 09:18:18;;;;;;;30.15;13.93;;;;;;;1.91;96.43;102315.47;7395868;19;20030;-66
2022/01/26 09:20:46;;;;;;;30.17;15.73;;;;;;;1.96;96.18;102302.72;7395987;19;20531;-66
2022/01/26 09:23:14;;;;;;;26.13;12.75;;;;;;;1.98;95.81;102303.66;7394695;19;20378;-66
2022/01/26 09:25:42;;;;;;;31.13;13.43;;;;;;;2.03;96.14;102296.06;7394180;19;20365;-65
2022/01/26 09:28:11;;;;;;;31.42;15.35;;;;;;;2.07;96.70;102298.84;7395308;19;20028;-66
2022/01/26 09:30:39;;;;;;;27.67;14.75;;;;;;;2.13;96.49;102311.13;7396637;19;20018;-66
2022/01/26 09:33:09;;;;;;;29.02;14.45;;;;;;;2.15;95.92;102316.34;7394847;19;20044;-65
2022/01/26 09:35:38;;;;;;;24.58;11.70;;;;;;;2.19;95.78;102321.72;7397793;19;20037;-66
2022/01/26 09:38:06;;;;;;;30.80;13.35;;;;;;;2.22;94.90;102332.19;7395229;19;20023;-69
2022/01/26 09:40:34;;;;;;;21.77;12.52;;;;;;;2.24;94.53;102337.44;7394452;19;20022;-66
2022/01/26 09:43:02;;;;;;;21.58;11.95;;;;;;;2.27;94.23;102346.22;7396143;19;20048;-65
2022/01/26 09:45:34;;;;;;;23.58;11.50;;;;;;;2.27;93.18;102334.97;7395805;19;20039;-65
2022/01/26 09:48:02;;;;;;;24.27;11.52;;;;;;;2.28;92.99;102349.69;7394539;19;20018;-65
2022/01/26 09:50:34;;;;;;;22.02;11.88;;;;;;;2.30;94.94;102334.19;7396255;19;20018;-65
2022/01/26 09:53:03;;;;;;;22.70;11.40;;;;;;;2.33;94.87;102329.16;7394698;19;20035;-65
2022/01/26 09:55:32;;;;;;;20.23;10.95;;;;;;;2.33;94.13;102324.84;7395671;19;20486;-66
2022/01/26 09:58:02;;;;;;;18.95;10.27;;;;;;;2.35;95.23;102323.19;7394405;19;20014;-66
2022/01/26 10:00:31;;;;;;;21.70;11.95;;;;;;;2.34;93.73;102317.94;7395701;19;20018;-65
2022/01/26 10:03:01;;;;;;;23.23;11.23;;;;;;;2.36;95.21;102314.56;7394034;19;20031;-65
2022/01/26 10:05:43;;;;;;;21.85;11.13;;;;;;;2.37;93.72;102313.75;7395635;19;20471;-67
2022/01/26 10:08:25;;;;;;;20.05;10.65;;;;;;;2.41;94.33;102312.16;7394564;19;20026;-63
2022/01/26 10:19:20;;;;;;;17.73;10.85;;;;;;;2.43;93.50;102329.53;7391450;19;20126;-64
2022/01/26 10:21:53;;;;;;;19.45;10.85;;;;;;;2.43;91.85;102324.34;7395298;19;20014;-66
2022/01/26 10:24:28;;;;;;;16.90;9.70;;;;;;;2.44;92.53;102322.66;7395208;19;20036;-66
2022/01/26 10:27:00;;;;;;;18.25;9.95;;;;;;;2.45;92.90;102319.22;7392564;19;20011;-66
2022/01/26 10:29:33;;;;;;;19.10;9.80;;;;;;;2.47;92.00;102332.25;7393846;19;20015;-65
2022/01/26 10:32:13;;;;;;;23.60;12.10;;;;;;;2.46;91.45;102330.47;7395008;19;20025;-65
2022/01/26 10:34:41;;;;;;;17.70;10.60;;;;;;;2.49;93.08;102321.13;7393937;19;20047;-65
2022/01/26 10:37:12;;;;;;;16.55;9.30;;;;;;;2.48;90.15;102326.22;7393766;19;20018;-67
2022/01/26 10:39:45;;;;;;;15.82;8.75;;;;;;;2.49;90.45;102325.41;7394502;19;20019;-65
2022/01/26 10:42:19;;;;;;;16.60;9.63;;;;;;;2.47;90.92;102316.72;7397277;19;20018;-65
2022/01/26 10:44:54;;;;;;;14.63;9.40;;;;;;;2.50;90.88;102319.41;7397264;19;20022;-65
2022/01/26 10:47:32;;;;;;;15.90;9.07;;;;;;;2.49;89.64;102322.81;7394912;19;20103;-67
2022/01/26 10:50:30;;;;;;;18.60;10.05;;;;;;;2.48;88.87;102323.63;7394189;19;20496;-68
2022/01/26 10:53:10;;;;;;;15.98;9.82;;;;;;;2.48;89.79;102328.81;7392570;19;20018;-67
2022/01/26 10:55:40;;;;;;;17.70;10.50;;;;;;;2.46;90.37;102321.00;7394891;19;20014;-68
2022/01/26 10:58:10;;;;;;;18.23;10.57;;;;;;;2.46;90.33;102320.13;7392445;19;20387;-69
2022/01/26 11:00:41;;;;;;;16.83;10.07;;;;;;;2.45;91.77;102319.22;7392472;19;20019;-70
2022/01/26 11:03:09;;;;;;;19.15;9.90;;;;;;;2.44;91.56;102323.53;7392484;19;20043;-67
2022/01/26 11:05:38;;;;;;;18.67;9.68;;;;;;;2.45;90.12;102329.56;7393227;19;20448;-64
2022/01/26 11:08:11;;;;;;;16.65;10.27;;;;;;;2.43;91.09;102321.75;7391285;19;20498;-64
2022/01/26 11:10:42;;;;;;;14.90;9.00;;;;;;;2.45;90.27;102324.41;7393766;19;20018;-65
2022/01/26 11:13:10;;;;;;;17.00;9.93;;;;;;;2.46;91.47;102320.13;7392916;19;20471;-65
2022/01/26 11:15:39;;;;;;;17.67;9.82;;;;;;;2.48;90.72;102321.94;7393578;19;20022;-64
2022/01/26 11:18:10;;;;;;;17.42;10.25;;;;;;;2.50;90.17;102314.22;7391802;19;20353;-64
2022/01/26 11:20:49;;;;;;;20.92;10.18;;;;;;;2.51;89.55;102303.91;7392222;19;20015;-64
2022/01/26 11:23:21;;;;;;;17.95;9.85;;;;;;;2.53;89.62;102312.63;7392613;19;20022;-64
2022/01/26 11:25:51;;;;;;;15.32;9.40;;;;;;;2.57;89.47;102313.63;7393328;19;20019;-64
2022/01/26 11:28:22;;;;;;;14.93;8.23;;;;;;;2.57;87.61;102324.00;7392342;19;20023;-65
2022/01/26 11:30:51;;;;;;;12.25;7.75;;;;;;;2.55;86.64;102315.25;7393425;19;20019;-65
2022/01/26 11:33:24;;;;;;;15.18;7.75;;;;;;;2.53;87.81;102323.00;7390713;19;20054;-65
2022/01/26 11:35:54;;;;;;;12.55;6.82;;;;;;;2.50;87.26;102314.22;7392860;19;20022;-64
2022/01/26 11:39:13;;;;;;;9.93;6.03;;;;;;;2.44;87.12;102317.47;7391736;19;20508;-64
2022/01/26 11:46:55;;;;;;;9.93;5.70;;;;;;;2.26;88.61;102338.38;7400580;19;20018;-65
2022/01/26 11:49:26;;;;;;;12.45;6.85;;;;;;;2.23;90.29;102312.38;7400276;19;20018;-65
2022/01/26 11:51:57;;;;;;;15.68;8.00;;;;;;;2.17;90.20;102318.19;7400951;19;20011;-66
2022/01/26 11:54:30;;;;;;;14.25;7.30;;;;;;;2.14;91.45;102307.72;7400624;19;20045;-65
2022/01/26 11:57:04;;;;;;;12.63;7.97;;;;;;;2.13;91.66;102330.97;7399687;19;20027;-65
2022/01/26 11:59:35;;;;;;;;;;;;;;;2.09;91.44;102297.19;7401859;19;20088;-65
2022/01/26 12:02:08;;;;;;;13.05;7.75;;;;;;;2.07;91.58;102310.88;7400338;19;19910;-66
2022/01/26 12:04:38;;;;;;;14.05;7.80;;;;;;;2.00;90.11;102293.34;7400812;19;20021;-66
2022/01/26 12:07:21;;;;;;;15.23;8.80;;;;;;;1.98;91.29;102293.28;7398949;19;20018;-66
2022/01/26 12:09:52;;;;;;;13.80;8.18;;;;;;;1.99;91.78;102289.88;7399042;19;20448;-65
2022/01/26 12:12:22;;;;;;;11.70;7.25;;;;;;;2.01;91.88;102289.94;7397279;19;20015;-64
2022/01/26 12:15:01;;;;;;;19.20;8.65;;;;;;;2.03;90.77;102284.00;7396794;19;20037;-64
2022/01/26 12:17:34;;;;;;;13.73;8.18;;;;;;;2.04;91.73;102271.94;7394784;19;20053;-65
2022/01/26 12:32:01;;;;;;;16.02;8.57;;;;;;;2.03;91.05;102278.81;7398007;19;20488;-65
2022/01/26 12:37:02;;;;;;;24.30;12.75;;;;;;;1.84;93.95;102291.88;7391101;19;20015;-65
2022/01/26 12:42:25;;;;;;;34.72;15.35;;;;;;;1.72;94.03;102276.75;7398327;19;20118;-65
2022/01/26 12:45:01;;;;;;;35.22;16.85;;;;;;;1.66;94.09;102276.53;7396561;19;20018;-65
2022/01/26 12:47:29;;;;;;;34.60;18.45;;;;;;;1.68;94.05;102274.88;7396154;19;20014;-64
2022/01/26 12:49:58;;;;;;;36.55;18.80;;;;;;;1.63;92.96;102277.25;7398526;19;20018;-65
2022/01/26 12:52:28;;;;;;;46.05;19.83;;;;;;;1.58;92.61;102263.25;7396186;19;20035;-65
2022/01/26 12:54:56;;;;;;;42.78;19.73;;;;;;;1.53;92.01;102273.44;7396546;19;20018;-65
2022/01/26 12:57:27;;;;;;;47.03;20.35;;;;;;;1.50;92.97;102234.50;7396083;19;20035;-65
2022/01/26 13:00:02;;;;;;;45.80;20.83;;;;;;;1.49;92.60;102237.03;7398251;19;20032;-65
2022/01/26 13:02:30;;;;;;;45.33;20.15;;;;;;;1.45;92.99;102226.59;7395626;19;20018;-65
2022/01/26 13:05:01;;;;;;;43.78;20.20;;;;;;;1.44;92.47;102221.31;7395532;19;20023;-64
2022/01/26 13:07:30;;;;;;;49.75;21.48;;;;;;;1.43;92.38;102227.34;7396800;19;20014;-64
2022/01/26 13:09:58;;;;;;;45.00;19.65;;;;;;;1.37;90.67;102233.13;7397412;19;20330;-65
2022/01/26 13:12:35;;;;;;;42.55;18.65;;;;;;;1.38;91.11;102224.56;7395222;19;20031;-65
2022/01/26 13:15:12;;;;;;;43.58;19.92;;;;;;;1.38;91.53;102228.84;7395368;19;20031;-65
2022/01/26 13:17:45;;;;;;;50.92;19.80;;;;;;;1.38;92.22;102229.75;7395549;19;20077;-64